Time;durP1;ratioP1;P1;durP2;ratioP2;P2;SDS_P1;SDS_P2;PMS_P1;PMS_P2;Temp;Humidity;BMP_temperature;BMP_pressure;BME280_temperature;BME280_humidity;BME280_pressure;Samples;Min_cycle;Max_cycle;Signal;HPM_P1;HPM_P2
2023/01/05 00:01:13;;;;;;;0.20;0.20;;;;;;;11.41;86.66;100876.34;5038185;28;20498;-77
2023/01/05 00:34:43;;;;;;;2.55;0.63;;;;;;;11.29;88.72;100843.00;4950735;28;20410;-77
2023/01/05 00:37:37;;;;;;;0.30;0.30;;;;;;;11.27;89.05;100836.97;5023733;28;20420;-77
2023/01/05 00:40:59;;;;;;;0.40;0.40;;;;;;;11.30;88.76;100831.88;5002803;28;20418;-78
2023/01/05 01:42:52;;;;;;;0.30;0.10;;;;;;;11.36;89.84;100800.28;5009581;28;20449;-77
2023/01/05 01:46:22;;;;;;;0.17;0.17;;;;;;;11.40;89.66;100804.97;5015021;28;20401;-77
2023/01/05 01:52:54;;;;;;;0.10;0.10;;;;;;;11.45;89.08;100802.34;5003913;28;20390;-77
2023/01/05 01:59:23;;;;;;;0.40;0.10;;;;;;;11.55;88.54;100780.00;5020356;28;20478;-78
2023/01/05 02:03:00;;;;;;;0.10;0.10;;;;;;;11.53;88.38;100781.28;5009133;28;20397;-77
2023/01/05 02:06:13;;;;;;;0.20;0.10;;;;;;;11.54;88.68;100788.38;5008614;28;20428;-77
2023/01/05 02:13:17;;;;;;;0.00;0.00;;;;;;;11.57;89.09;100790.59;5020418;28;20522;-77
2023/01/05 02:26:44;;;;;;;0.70;0.10;;;;;;;11.65;88.81;100803.81;5021113;28;20418;-77
2023/01/05 02:33:07;;;;;;;0.60;0.20;;;;;;;11.54;89.57;100821.78;5023905;28;20459;-77
2023/01/05 02:36:39;;;;;;;0.40;0.40;;;;;;;11.48;89.82;100817.31;5022538;28;20476;-77
2023/01/05 02:40:20;;;;;;;0.10;0.10;;;;;;;11.49;89.65;100823.59;5039683;28;20430;-78
2023/01/05 02:43:41;;;;;;;0.30;0.20;;;;;;;11.48;90.04;100816.50;5046155;28;20443;-77
2023/01/05 02:47:03;;;;;;;0.90;0.10;;;;;;;11.42;90.52;100810.97;5026520;28;20471;-78
2023/01/05 02:53:26;;;;;;;0.10;0.10;;;;;;;11.41;90.32;100803.06;5039336;28;20455;-77
2023/01/05 02:56:32;;;;;;;0.10;0.10;;;;;;;11.41;90.65;100792.22;5021982;28;20394;-77
2023/01/05 02:59:21;;;;;;;0.10;0.10;;;;;;;11.42;90.42;100802.00;5010671;28;20883;-77
2023/01/05 03:02:10;;;;;;;0.10;0.10;;;;;;;11.50;90.16;100815.19;5018325;28;20459;-78
2023/01/05 03:05:01;;;;;;;0.20;0.20;;;;;;;11.55;90.14;100803.59;5033554;28;20437;-77
2023/01/05 03:08:20;;;;;;;0.17;0.17;;;;;;;11.52;89.90;100804.94;5018301;28;20706;-77
2023/01/05 03:15:01;;;;;;;0.40;0.10;;;;;;;11.54;90.23;100802.78;5038632;28;20387;-77
2023/01/05 03:18:21;;;;;;;0.20;0.10;;;;;;;11.51;90.55;100805.97;5008867;28;20495;-77
2023/01/05 03:20:59;;;;;;;0.05;0.05;;;;;;;11.42;91.09;100813.69;5007924;28;20447;-77
2023/01/05 03:35:48;;;;;;;0.90;0.30;;;;;;;11.35;91.71;100817.59;5027773;28;20433;-78
2023/01/05 03:38:44;;;;;;;0.30;0.20;;;;;;;11.32;91.93;100824.34;4996757;28;20465;-78
2023/01/05 03:41:25;;;;;;;0.30;0.10;;;;;;;11.36;91.85;100825.50;5027442;28;20409;-77
2023/01/05 03:44:13;;;;;;;0.20;0.20;;;;;;;11.36;91.88;100827.41;5039056;28;20394;-77
2023/01/05 03:47:05;;;;;;;1.00;0.43;;;;;;;11.38;91.85;100820.66;5038295;28;20543;-77
2023/01/05 03:49:38;;;;;;;0.10;0.10;;;;;;;11.38;91.71;100831.53;4999087;28;20807;-77
2023/01/05 03:52:08;;;;;;;0.13;0.10;;;;;;;11.30;92.15;100826.47;5008951;28;20498;-77
2023/01/05 03:55:02;;;;;;;0.30;0.20;;;;;;;11.34;92.04;100815.94;5036545;28;20434;-77
2023/01/05 03:57:42;;;;;;;0.10;0.10;;;;;;;11.32;92.18;100824.34;5014851;28;20796;-77
2023/01/05 04:00:21;;;;;;;0.50;0.10;;;;;;;11.35;92.14;100826.56;5009209;28;20423;-78
2023/01/05 04:03:09;;;;;;;0.10;0.10;;;;;;;11.31;92.28;100813.72;5008547;28;20417;-77
2023/01/05 04:05:54;;;;;;;0.10;0.10;;;;;;;11.31;92.38;100816.44;5012886;28;20410;-77
2023/01/05 04:08:29;;;;;;;0.40;0.40;;;;;;;11.31;92.45;100819.16;5004045;28;20405;-77
2023/01/05 04:11:22;;;;;;;0.60;0.30;;;;;;;11.28;92.67;100825.06;5014709;28;20833;-78
2023/01/05 04:14:18;;;;;;;0.80;0.60;;;;;;;11.29;92.71;100824.00;5028831;28;20468;-78
2023/01/05 04:17:16;;;;;;;0.47;0.47;;;;;;;11.29;92.57;100826.72;5001749;28;20806;-77
2023/01/05 04:20:20;;;;;;;0.38;0.38;;;;;;;11.29;92.78;100834.84;5008379;28;20876;-77
2023/01/05 04:22:54;;;;;;;0.70;0.52;;;;;;;11.30;92.94;100845.44;5020174;28;20783;-78
2023/01/05 04:25:46;;;;;;;0.77;0.57;;;;;;;11.30;92.79;100840.03;5017415;28;20738;-78
2023/01/05 04:28:34;;;;;;;0.20;0.20;;;;;;;11.32;92.52;100840.63;5025821;28;20752;-77
2023/01/05 04:31:11;;;;;;;0.40;0.30;;;;;;;11.33;92.88;100846.84;4993998;28;20417;-77
2023/01/05 04:33:48;;;;;;;0.53;0.27;;;;;;;11.38;92.86;100849.69;5021601;28;20408;-77
2023/01/05 04:36:24;;;;;;;1.20;0.20;;;;;;;11.37;92.70;100848.03;5025210;28;20500;-77
2023/01/05 04:39:18;;;;;;;0.30;0.20;;;;;;;11.29;93.34;100846.53;5031948;28;20514;-77
2023/01/05 04:45:41;;;;;;;0.90;0.20;;;;;;;11.30;93.51;100852.75;5016657;28;20524;-77
2023/01/05 04:48:51;;;;;;;0.60;0.22;;;;;;;11.31;93.64;100873.41;5018322;28;20482;-77
2023/01/05 04:51:27;;;;;;;0.25;0.10;;;;;;;11.31;93.54;100873.41;5040414;28;20414;-77
2023/01/05 04:53:58;;;;;;;1.58;0.10;;;;;;;11.31;93.65;100868.00;5034666;28;20399;-77
2023/01/05 04:56:24;;;;;;;0.20;0.20;;;;;;;11.30;93.82;100878.00;5040770;28;20395;-77
2023/01/05 04:58:51;;;;;;;0.20;0.20;;;;;;;11.32;93.65;100867.75;5023302;28;20410;-77
2023/01/05 05:01:21;;;;;;;0.10;0.10;;;;;;;11.34;93.63;100864.78;5047978;28;20401;-78
2023/01/05 05:03:55;;;;;;;0.15;0.10;;;;;;;11.46;92.82;100874.53;5011246;28;20419;-79
2023/01/05 05:06:21;;;;;;;1.55;0.43;;;;;;;11.33;93.46;100882.13;5026568;28;20418;-77
2023/01/05 05:08:47;;;;;;;1.90;0.30;;;;;;;11.31;93.91;100885.09;5039366;28;20401;-77
2023/01/05 05:11:18;;;;;;;1.02;0.20;;;;;;;11.31;93.72;100885.09;5016310;28;20416;-77
2023/01/05 05:13:43;;;;;;;0.80;0.20;;;;;;;11.33;93.79;100885.66;5030289;28;20400;-78
2023/01/05 05:16:11;;;;;;;0.30;0.20;;;;;;;11.33;93.76;100884.84;5016032;28;20482;-77
2023/01/05 05:18:41;;;;;;;0.70;0.30;;;;;;;11.35;93.65;100880.03;5011016;28;20784;-77
2023/01/05 05:21:10;;;;;;;2.80;0.40;;;;;;;11.33;94.11;100887.56;5028751;28;20405;-77
2023/01/05 05:23:37;;;;;;;0.30;0.15;;;;;;;11.34;93.92;100889.22;5033406;28;20397;-77
2023/01/05 05:26:04;;;;;;;0.32;0.30;;;;;;;11.34;93.93;100898.19;5017520;28;20814;-77
2023/01/05 05:28:31;;;;;;;0.60;0.60;;;;;;;11.37;93.91;100900.41;5017031;28;20492;-77
2023/01/05 05:30:59;;;;;;;2.20;0.40;;;;;;;11.39;93.76;100908.34;5045486;28;20845;-78
2023/01/05 05:33:27;;;;;;;0.50;0.20;;;;;;;11.40;93.64;100907.25;5024086;28;20419;-77
2023/01/05 05:35:57;;;;;;;1.38;0.40;;;;;;;11.39;93.59;100913.75;5020715;28;20418;-77
2023/01/05 05:38:23;;;;;;;2.40;0.28;;;;;;;11.43;93.79;100914.91;5014858;28;20503;-77
2023/01/05 05:41:07;;;;;;;3.00;0.82;;;;;;;11.62;92.37;100921.03;5015423;28;20451;-77
2023/01/05 05:43:59;;;;;;;1.80;0.30;;;;;;;11.65;92.47;100936.81;5016408;28;20874;-77
2023/01/05 05:46:42;;;;;;;1.10;0.22;;;;;;;11.65;92.41;100948.50;5022715;28;20420;-77
2023/01/05 05:49:09;;;;;;;1.08;0.20;;;;;;;11.59;92.38;100935.88;5022470;28;20411;-77
2023/01/05 05:51:41;;;;;;;1.87;0.43;;;;;;;11.63;92.16;100939.75;5036418;28;20401;-77
2023/01/05 05:54:07;;;;;;;1.10;0.20;;;;;;;11.61;92.00;100952.75;5043924;28;20427;-77
2023/01/05 05:56:40;;;;;;;0.50;0.20;;;;;;;11.56;92.50;100949.94;5009362;28;20927;-77
2023/01/05 05:59:27;;;;;;;1.10;0.10;;;;;;;11.59;92.29;100959.50;5021321;28;20432;-77
2023/01/05 06:01:55;;;;;;;1.40;1.40;;;;;;;11.58;92.50;100952.41;5010935;28;20764;-77
2023/01/05 06:04:38;;;;;;;1.58;1.48;;;;;;;11.56;92.58;100952.63;5047237;28;20401;-77
2023/01/05 06:07:13;;;;;;;0.60;0.50;;;;;;;11.54;92.64;100952.06;5012824;28;20876;-77
2023/01/05 06:09:40;;;;;;;1.70;0.60;;;;;;;11.52;92.90;100943.34;5028493;28;20430;-77
2023/01/05 06:12:14;;;;;;;0.43;0.43;;;;;;;11.52;92.80;100956.91;5056712;28;20484;-77
2023/01/05 06:14:57;;;;;;;0.47;0.47;;;;;;;11.48;92.64;100963.88;5044929;28;20405;-77
2023/01/05 06:17:29;;;;;;;0.20;0.20;;;;;;;11.42;93.16;100979.25;5033790;28;20780;-77
2023/01/05 06:20:18;;;;;;;2.80;0.95;;;;;;;11.48;93.03;100972.03;5026945;28;20430;-77
2023/01/05 06:22:46;;;;;;;3.00;2.60;;;;;;;11.50;92.46;100975.31;5011514;28;20433;-77
2023/01/05 06:25:12;;;;;;;2.85;2.03;;;;;;;11.49;92.69;100976.41;5047868;28;20389;-77
2023/01/05 06:27:39;;;;;;;0.80;0.80;;;;;;;11.48;92.93;100979.34;5020224;28;20768;-77
2023/01/05 06:30:08;;;;;;;1.40;1.30;;;;;;;11.49;92.66;100978.28;5029650;28;20402;-77
2023/01/05 06:32:34;;;;;;;2.30;1.58;;;;;;;11.49;92.58;100991.84;5013034;28;20403;-77
2023/01/05 06:38:26;;;;;;;3.08;2.10;;;;;;;11.56;92.27;100989.84;5035027;28;20402;-77
2023/01/05 06:40:54;;;;;;;2.75;1.85;;;;;;;11.56;92.47;100984.41;5006159;28;20442;-77
2023/01/05 06:43:20;;;;;;;4.47;1.85;;;;;;;11.58;92.18;100996.69;5007366;28;20916;-77
2023/01/05 06:45:49;;;;;;;3.37;1.03;;;;;;;11.55;92.26;100997.16;5019306;28;20419;-77
2023/01/05 06:48:37;;;;;;;2.95;1.30;;;;;;;11.56;92.23;101004.22;5003174;28;20792;-77
2023/01/05 06:51:24;;;;;;;1.05;0.77;;;;;;;11.61;92.20;101007.06;5018488;28;20411;-77
2023/01/05 06:54:06;;;;;;;2.50;1.60;;;;;;;11.63;91.78;101012.22;5003744;28;20409;-77
2023/01/05 06:56:39;;;;;;;1.17;1.08;;;;;;;11.63;91.93;101013.06;5011193;28;20451;-77
2023/01/05 06:59:09;;;;;;;0.95;0.90;;;;;;;11.60;91.69;101013.53;5010696;28;20423;-77
2023/01/05 07:01:50;;;;;;;0.57;0.57;;;;;;;11.62;92.14;101007.88;5005682;28;20418;-77
2023/01/05 07:04:22;;;;;;;0.63;0.63;;;;;;;11.56;92.06;101006.94;5016636;28;20405;-77
2023/01/05 07:07:02;;;;;;;0.50;0.50;;;;;;;11.51;92.30;101004.13;5010634;28;20442;-77
2023/01/05 07:09:31;;;;;;;0.60;0.60;;;;;;;11.54;92.27;101000.94;5014264;28;20399;-77
2023/01/05 07:12:01;;;;;;;0.70;0.70;;;;;;;11.51;92.43;100995.16;5016436;28;20500;-77
2023/01/05 07:14:28;;;;;;;1.40;1.30;;;;;;;11.50;92.60;100996.19;5029777;28;20404;-77
2023/01/05 07:17:01;;;;;;;4.18;2.70;;;;;;;11.50;92.58;101002.47;5046504;28;20405;-77
2023/01/05 07:19:43;;;;;;;2.70;1.10;;;;;;;11.49;92.45;100997.28;5021377;28;20897;-77
2023/01/05 07:22:15;;;;;;;4.18;2.33;;;;;;;11.50;92.33;100996.19;5020822;28;20414;-77
2023/01/05 07:24:43;;;;;;;4.05;1.52;;;;;;;11.46;92.47;101002.09;5005075;28;20448;-77
2023/01/05 07:27:14;;;;;;;3.47;1.75;;;;;;;11.46;92.58;101010.25;5015950;28;20764;-77
2023/01/05 07:29:41;;;;;;;2.72;1.27;;;;;;;11.46;92.33;101007.53;5030439;28;20423;-77
2023/01/05 07:32:12;;;;;;;6.47;1.93;;;;;;;11.45;92.50;101022.19;5036029;28;20812;-77
2023/01/05 07:34:40;;;;;;;4.32;1.77;;;;;;;11.46;92.54;101028.41;5000161;28;20406;-77
2023/01/05 07:37:07;;;;;;;1.80;1.52;;;;;;;11.38;92.70;101016.03;5014591;28;20408;-77
2023/01/05 07:39:39;;;;;;;4.55;1.70;;;;;;;11.37;92.70;101017.09;5022638;28;20430;-77
2023/01/05 07:42:41;;;;;;;3.77;1.53;;;;;;;11.38;92.76;101029.63;5022375;28;20411;-77
2023/01/05 07:48:23;;;;;;;2.63;1.23;;;;;;;11.42;92.24;101028.09;5022492;28;20422;-77
2023/01/05 07:51:01;;;;;;;3.63;1.40;;;;;;;11.39;92.71;101025.03;5020970;28;20441;-77
2023/01/05 07:53:28;;;;;;;3.17;1.20;;;;;;;11.45;92.55;101033.03;5027096;28;20481;-77
2023/01/05 07:55:58;;;;;;;5.33;1.33;;;;;;;11.47;92.19;101035.50;5022899;28;20438;-76
2023/01/05 07:58:24;;;;;;;3.20;1.05;;;;;;;11.50;91.67;101042.34;5032862;28;20391;-76
2023/01/05 08:00:49;;;;;;;6.07;2.17;;;;;;;11.55;91.62;101040.59;4998237;28;20428;-75
2023/01/05 08:03:15;;;;;;;5.80;2.40;;;;;;;11.60;91.59;101042.56;5034600;28;20492;-76
2023/01/05 08:05:40;;;;;;;4.57;2.00;;;;;;;11.66;91.24;101050.59;5036440;28;20414;-77
2023/01/05 08:08:05;;;;;;;5.17;1.50;;;;;;;11.71;90.88;101052.63;5003364;28;20560;-77
2023/01/05 08:10:31;;;;;;;4.23;1.70;;;;;;;11.69;90.79;101057.47;5028410;28;20450;-77
2023/01/05 08:15:50;;;;;;;3.30;1.30;;;;;;;11.71;90.61;101045.31;5037249;28;20896;-78
2023/01/05 08:18:15;;;;;;;3.03;1.30;;;;;;;11.72;90.59;101044.22;5040736;28;20497;-78
2023/01/05 08:20:40;;;;;;;5.03;1.42;;;;;;;11.75;89.71;101046.50;5029267;28;20703;-76
2023/01/05 08:23:05;;;;;;;4.83;1.43;;;;;;;11.79;89.20;101053.09;5019236;28;20884;-77
2023/01/05 08:25:31;;;;;;;6.40;1.33;;;;;;;11.83;88.94;101053.44;5020130;28;20399;-77
2023/01/05 08:27:57;;;;;;;9.83;1.77;;;;;;;11.87;88.39;101057.34;5019216;28;20420;-76
2023/01/05 08:30:23;;;;;;;6.70;1.73;;;;;;;11.89;88.05;101064.16;5014302;28;20776;-77
2023/01/05 08:32:48;;;;;;;6.20;2.07;;;;;;;11.90;87.75;101068.56;5032444;28;20407;-76
2023/01/05 08:35:13;;;;;;;8.47;1.87;;;;;;;11.98;87.28;101075.50;5032242;28;20821;-76
2023/01/05 08:37:38;;;;;;;9.73;2.30;;;;;;;12.04;86.82;101079.16;5011293;28;20453;-76
2023/01/05 08:40:04;;;;;;;9.70;2.17;;;;;;;12.05;86.62;101073.50;5032980;28;20969;-76
2023/01/05 08:42:30;;;;;;;17.03;4.43;;;;;;;12.02;86.33;101092.16;5033425;28;20422;-76
2023/01/05 08:44:55;;;;;;;15.37;3.87;;;;;;;12.00;86.22;101089.66;5043539;28;20405;-76
2023/01/05 08:47:20;;;;;;;13.60;2.97;;;;;;;11.99;85.36;101092.63;5016011;28;20418;-76
2023/01/05 08:49:46;;;;;;;9.53;2.43;;;;;;;11.99;85.21;101092.63;5017915;28;20942;-77
2023/01/05 08:52:11;;;;;;;12.13;2.63;;;;;;;11.98;85.36;101101.84;5009971;28;20422;-76
2023/01/05 08:54:36;;;;;;;12.93;2.50;;;;;;;11.98;84.73;101104.56;5025667;28;20410;-77
2023/01/05 08:57:01;;;;;;;10.57;2.47;;;;;;;11.91;84.74;101110.13;5026619;28;20407;-77
2023/01/05 08:59:27;;;;;;;12.18;2.47;;;;;;;11.95;84.47;101114.81;5027661;28;20901;-77
2023/01/05 09:01:52;;;;;;;15.70;2.83;;;;;;;12.00;84.15;101124.16;4998546;28;20401;-77
2023/01/05 09:04:17;;;;;;;16.40;2.70;;;;;;;12.00;83.50;101130.41;5027251;28;21099;-77
2023/01/05 09:06:43;;;;;;;12.00;2.50;;;;;;;11.97;83.56;101133.59;5027258;28;20437;-76
2023/01/05 09:09:08;;;;;;;12.53;2.43;;;;;;;12.01;83.20;101126.66;5031266;28;20493;-76
2023/01/05 09:11:40;;;;;;;12.97;1.90;;;;;;;12.04;82.88;101142.47;5027158;28;20395;-75
2023/01/05 09:14:14;;;;;;;12.05;2.50;;;;;;;12.05;82.41;101129.72;5031032;28;20491;-77
2023/01/05 09:16:55;;;;;;;13.25;2.53;;;;;;;12.02;82.29;101133.72;5028117;28;20393;-76
2023/01/05 09:19:22;;;;;;;11.18;2.10;;;;;;;12.06;82.36;101134.91;5017679;28;20446;-77
2023/01/05 09:21:49;;;;;;;9.75;2.22;;;;;;;12.10;81.95;101135.25;5024144;28;20444;-77
2023/01/05 09:24:15;;;;;;;7.53;2.20;;;;;;;12.10;81.37;101155.09;4983301;28;20419;-77
2023/01/05 09:26:42;;;;;;;13.05;2.65;;;;;;;12.14;80.46;101139.97;5022235;28;20529;-77
2023/01/05 09:29:10;;;;;;;11.23;2.35;;;;;;;12.21;80.10;101154.25;5030824;28;20425;-77
2023/01/05 09:31:37;;;;;;;9.02;1.85;;;;;;;12.26;79.75;101151.66;5027244;28;20434;-77
2023/01/05 09:34:05;;;;;;;12.60;2.28;;;;;;;12.27;79.40;101145.16;4989129;28;20402;-77
2023/01/05 09:36:34;;;;;;;11.32;2.50;;;;;;;12.26;79.56;101158.97;5016122;28;20547;-77
2023/01/05 09:39:04;;;;;;;13.27;2.42;;;;;;;12.23;79.40;101162.16;5012136;28;20463;-75
2023/01/05 09:41:35;;;;;;;13.73;2.55;;;;;;;12.22;78.77;101166.75;5032748;28;20475;-75
2023/01/05 09:44:10;;;;;;;16.45;3.72;;;;;;;12.25;78.64;101165.50;5036239;28;20395;-75
2023/01/05 09:46:39;;;;;;;14.05;2.78;;;;;;;12.26;78.50;101158.97;5018716;28;20402;-75
2023/01/05 09:49:11;;;;;;;11.77;2.85;;;;;;;12.28;78.28;101165.00;5030376;28;20467;-77
2023/01/05 09:51:36;;;;;;;13.48;2.65;;;;;;;12.32;78.05;101163.44;5033240;28;20881;-76
2023/01/05 09:54:02;;;;;;;12.50;2.90;;;;;;;12.43;77.48;101168.03;5027742;28;20413;-76
2023/01/05 09:56:30;;;;;;;13.65;3.88;;;;;;;12.46;77.58;101165.66;5034217;28;20411;-76
2023/01/05 09:59:24;;;;;;;13.88;3.03;;;;;;;12.48;77.30;101160.81;4998906;28;20424;-76
2023/01/05 10:01:51;;;;;;;16.58;2.83;;;;;;;12.44;76.89;101167.81;5023099;28;20820;-76
2023/01/05 10:04:22;;;;;;;22.48;4.32;;;;;;;12.43;76.53;101160.72;5028693;28;20406;-76
2023/01/05 10:06:51;;;;;;;14.07;2.97;;;;;;;12.44;76.76;101165.09;5028275;28;20822;-77
2023/01/05 10:09:23;;;;;;;15.27;3.10;;;;;;;12.48;76.40;101159.97;5021796;28;20524;-76
2023/01/05 10:15:17;;;;;;;11.98;2.92;;;;;;;12.58;75.79;101160.19;5021321;28;20394;-77
2023/01/05 10:17:43;;;;;;;10.45;2.70;;;;;;;12.60;75.42;101155.34;5025024;28;20403;-76
2023/01/05 10:20:36;;;;;;;17.25;3.33;;;;;;;12.67;75.17;101153.31;5014359;28;20422;-77
2023/01/05 10:23:11;;;;;;;15.05;3.33;;;;;;;12.73;75.13;101152.34;5028260;28;20403;-77
2023/01/05 10:25:46;;;;;;;17.85;3.20;;;;;;;12.74;74.62;101154.00;5031241;28;20414;-76
2023/01/05 10:29:01;;;;;;;15.32;3.25;;;;;;;12.77;74.35;101155.41;5028620;28;20764;-78
2023/01/05 10:32:06;;;;;;;15.98;2.80;;;;;;;12.73;74.52;101149.63;4982851;28;20414;-77
2023/01/05 10:34:50;;;;;;;15.07;2.65;;;;;;;12.79;74.20;101134.22;4961491;28;20427;-78
2023/01/05 10:37:37;;;;;;;14.90;3.08;;;;;;;12.90;73.63;101139.63;5016337;28;20491;-77
2023/01/05 10:40:17;;;;;;;15.43;2.93;;;;;;;12.94;73.63;101132.59;5018408;28;20472;-78
2023/01/05 10:43:05;;;;;;;11.70;2.70;;;;;;;13.01;73.52;101133.28;5013908;28;20401;-78
2023/01/05 10:45:31;;;;;;;11.77;2.90;;;;;;;13.05;72.96;101130.06;5023719;28;20920;-78
2023/01/05 10:47:58;;;;;;;10.30;2.70;;;;;;;13.01;72.88;101133.28;5029597;28;20427;-78
2023/01/05 10:50:36;;;;;;;12.15;2.90;;;;;;;13.00;72.81;101136.28;5029175;28;20400;-77
2023/01/05 10:53:10;;;;;;;12.43;2.97;;;;;;;12.99;72.76;101132.72;5019578;28;20771;-78
2023/01/05 10:55:57;;;;;;;13.82;3.83;;;;;;;13.08;72.48;101135.84;5034961;28;20969;-78
2023/01/05 10:58:31;;;;;;;8.13;2.55;;;;;;;13.09;72.42;101132.09;5028581;28;20417;-78
2023/01/05 11:01:03;;;;;;;17.42;3.15;;;;;;;13.09;72.17;101134.81;5019576;28;20451;-77
2023/01/05 11:03:44;;;;;;;14.00;3.17;;;;;;;13.08;72.45;101129.59;5014478;28;20467;-78
2023/01/05 11:06:19;;;;;;;8.80;2.13;;;;;;;13.10;72.54;101132.94;5025236;28;20921;-77
2023/01/05 11:08:51;;;;;;;13.53;2.63;;;;;;;13.13;72.62;101129.72;5007311;28;20395;-78
2023/01/05 11:11:35;;;;;;;12.93;2.20;;;;;;;13.15;72.57;101127.56;5029189;28;20493;-78
2023/01/05 11:14:00;;;;;;;11.65;2.60;;;;;;;13.23;72.67;101136.19;5012846;28;20971;-77
2023/01/05 11:16:31;;;;;;;10.50;2.30;;;;;;;13.26;72.22;101141.13;5002284;28;20482;-81
2023/01/05 11:19:00;;;;;;;12.90;2.95;;;;;;;13.12;72.75;101141.66;5024406;28;20411;-77
2023/01/05 11:21:34;;;;;;;13.77;2.42;;;;;;;13.00;72.94;101141.72;5008292;28;20403;-77
2023/01/05 11:24:01;;;;;;;13.07;2.83;;;;;;;12.91;73.17;101129.56;5031982;28;20403;-78
2023/01/05 11:26:32;;;;;;;11.75;2.50;;;;;;;12.85;73.28;101135.97;5026203;28;20671;-77
2023/01/05 11:29:09;;;;;;;10.82;2.22;;;;;;;12.82;73.22;101140.00;5018867;28;20926;-77
2023/01/05 11:31:52;;;;;;;9.40;2.63;;;;;;;12.81;72.97;101145.72;5019511;28;20610;-77
2023/01/05 11:34:29;;;;;;;11.13;2.50;;;;;;;12.83;73.20;101146.28;5023797;28;20441;-77
2023/01/05 11:37:01;;;;;;;10.88;2.63;;;;;;;12.84;73.44;101146.03;5023235;28;20404;-77
2023/01/05 11:39:30;;;;;;;14.85;2.45;;;;;;;12.89;73.60;101151.56;5026439;28;20510;-77
2023/01/05 11:42:26;;;;;;;14.93;3.05;;;;;;;13.06;72.99;101143.44;5029600;28;20398;-76
2023/01/05 11:44:59;;;;;;;12.77;3.50;;;;;;;13.26;72.48;101143.03;5020229;28;20493;-73
2023/01/05 11:47:29;;;;;;;9.68;2.33;;;;;;;13.29;71.97;101139.81;4989093;28;20419;-77
2023/01/05 11:50:01;;;;;;;12.50;2.40;;;;;;;13.24;71.75;101148.69;5030200;28;20940;-77
2023/01/05 11:52:51;;;;;;;15.23;2.60;;;;;;;13.25;72.20;101149.53;5029938;28;20884;-76
2023/01/05 11:55:19;;;;;;;11.73;2.77;;;;;;;13.42;71.60;101142.19;5022707;28;20411;-76
2023/01/05 11:57:48;;;;;;;12.55;2.40;;;;;;;13.59;70.88;101151.22;5031374;28;20493;-76
2023/01/05 12:00:25;;;;;;;12.45;3.00;;;;;;;13.58;70.80;101146.81;5028083;28;20418;-76
2023/01/05 12:03:27;;;;;;;15.40;2.72;;;;;;;13.48;71.12;101143.94;5026663;28;20408;-76
2023/01/05 12:05:55;;;;;;;17.13;2.30;;;;;;;13.32;71.59;101133.88;5028911;28;20436;-76
2023/01/05 12:08:40;;;;;;;7.43;2.25;;;;;;;13.21;71.87;101135.56;5025911;28;21732;-76
2023/01/05 12:11:14;;;;;;;12.87;3.20;;;;;;;13.14;72.18;101131.38;5022033;28;20397;-76
2023/01/05 12:13:54;;;;;;;9.33;2.23;;;;;;;13.15;72.31;101135.72;5015636;28;20871;-76
2023/01/05 12:16:37;;;;;;;14.52;3.17;;;;;;;13.18;72.12;101141.50;5019276;28;20413;-76
2023/01/05 12:19:19;;;;;;;11.48;2.65;;;;;;;13.30;71.77;101138.75;5026090;28;20500;-76
2023/01/05 12:22:09;;;;;;;12.18;2.42;;;;;;;13.41;71.90;101130.47;5007508;28;20403;-77
2023/01/05 12:24:41;;;;;;;12.67;2.57;;;;;;;13.39;71.38;101138.09;5007530;28;20486;-77
2023/01/05 12:27:22;;;;;;;14.05;2.83;;;;;;;13.32;71.26;101131.97;5023069;28;20419;-76
2023/01/05 12:30:00;;;;;;;11.90;3.25;;;;;;;13.28;71.21;101135.41;5024411;28;20493;-76
2023/01/05 12:32:43;;;;;;;12.55;2.78;;;;;;;13.24;71.75;101140.53;5030396;28;20786;-75
2023/01/05 12:35:27;;;;;;;15.15;3.33;;;;;;;13.33;71.23;101151.84;5027210;28;20494;-77
2023/01/05 12:38:25;;;;;;;17.45;2.33;;;;;;;13.38;71.05;101151.94;5026747;28;20410;-76
2023/01/05 12:41:12;;;;;;;15.20;2.97;;;;;;;13.33;71.45;101160.84;5028194;28;20464;-76
2023/01/05 12:43:58;;;;;;;12.05;2.58;;;;;;;13.32;71.64;101153.75;5023822;28;20874;-76
2023/01/05 12:46:49;;;;;;;14.88;2.65;;;;;;;13.35;71.31;101147.81;5021691;28;22280;-77
2023/01/05 12:49:20;;;;;;;13.05;2.50;;;;;;;13.25;71.08;101154.97;5026656;28;20399;-77
2023/01/05 12:51:59;;;;;;;16.42;2.88;;;;;;;13.16;71.10;101151.00;5010297;28;20403;-76
2023/01/05 12:54:36;;;;;;;10.17;2.20;;;;;;;13.09;70.82;101156.59;5021166;28;20537;-76
2023/01/05 12:57:10;;;;;;;10.33;2.70;;;;;;;13.02;70.59;101153.16;5007761;28;20420;-76
2023/01/05 13:00:10;;;;;;;12.90;2.70;;;;;;;13.01;71.00;101152.34;5028459;28;20489;-76
2023/01/05 13:02:40;;;;;;;17.15;4.30;;;;;;;12.99;70.89;101156.38;5026459;28;20412;-76
2023/01/05 13:05:21;;;;;;;13.90;4.50;;;;;;;12.97;70.97;101153.09;5029685;28;20401;-75
2023/01/05 13:07:54;;;;;;;15.70;3.88;;;;;;;12.96;71.02;101156.88;5012915;28;20403;-75
2023/01/05 13:10:22;;;;;;;18.92;4.25;;;;;;;12.99;71.26;101149.03;5025871;28;20431;-75
2023/01/05 13:12:58;;;;;;;12.23;3.97;;;;;;;13.02;71.18;101145.00;5024085;28;20762;-74
2023/01/05 13:15:44;;;;;;;15.80;3.83;;;;;;;13.00;71.29;101137.09;5023709;28;20411;-74
2023/01/05 13:18:16;;;;;;;11.93;4.03;;;;;;;12.99;71.26;101145.50;5027739;28;20404;-75
2023/01/05 13:20:55;;;;;;;14.55;4.05;;;;;;;12.97;71.70;101144.91;5029663;28;21620;-78
2023/01/05 13:23:35;;;;;;;18.92;3.65;;;;;;;12.98;71.34;101146.56;5028013;28;20486;-75
2023/01/05 13:26:20;;;;;;;10.93;3.10;;;;;;;12.99;71.60;101150.94;5033925;28;20410;-75
2023/01/05 13:28:48;;;;;;;18.08;4.80;;;;;;;13.00;71.37;101145.25;5026500;28;20409;-75
2023/01/05 13:31:35;;;;;;;15.30;3.35;;;;;;;13.01;71.50;101149.63;5030883;28;20410;-75
2023/01/05 13:34:21;;;;;;;19.67;3.88;;;;;;;13.01;71.50;101159.66;5025357;28;20758;-76
2023/01/05 13:37:06;;;;;;;14.32;3.47;;;;;;;12.99;71.24;101154.47;5020687;28;20436;-76
2023/01/05 13:40:02;;;;;;;15.10;3.33;;;;;;;12.99;71.50;101157.22;5023035;28;20424;-76
2023/01/05 13:42:57;;;;;;;19.65;3.45;;;;;;;12.99;71.04;101145.50;5019465;28;20839;-76
2023/01/05 13:45:51;;;;;;;15.85;2.55;;;;;;;12.99;71.43;101148.22;5035750;28;20391;-76
2023/01/05 13:48:42;;;;;;;13.40;2.97;;;;;;;12.99;71.53;101142.78;5029702;28;20408;-76
2023/01/05 13:51:25;;;;;;;10.48;2.83;;;;;;;12.99;71.45;101149.03;5032228;28;20429;-76
2023/01/05 13:53:53;;;;;;;15.82;3.20;;;;;;;12.95;71.59;101152.47;5017536;28;20404;-76
2023/01/05 13:56:21;;;;;;;15.27;2.72;;;;;;;12.89;71.45;101153.47;5035754;28;20493;-75
2023/01/05 13:59:14;;;;;;;21.85;3.92;;;;;;;12.94;71.38;101157.09;5025133;28;20405;-76
2023/01/05 14:01:42;;;;;;;13.85;3.55;;;;;;;12.95;71.45;101160.66;5025792;28;20468;-76
2023/01/05 14:04:22;;;;;;;12.38;2.53;;;;;;;12.94;71.19;101157.09;5033246;28;20406;-76
2023/01/05 14:06:52;;;;;;;15.05;3.78;;;;;;;12.94;71.16;101162.53;5023483;28;20488;-76
2023/01/05 14:09:45;;;;;;;17.08;3.72;;;;;;;13.00;71.10;101150.72;5027011;28;20477;-76
2023/01/05 14:12:10;;;;;;;14.13;3.83;;;;;;;12.99;71.25;101159.09;5011295;28;20930;-76
2023/01/05 14:15:04;;;;;;;12.63;2.40;;;;;;;12.99;70.92;101161.81;5009333;28;20407;-76
2023/01/05 14:17:51;;;;;;;11.68;2.58;;;;;;;12.94;71.12;101167.97;5002221;28;20421;-76
2023/01/05 14:20:51;;;;;;;13.32;2.80;;;;;;;12.95;71.18;101172.34;5030445;28;20460;-78
2023/01/05 14:23:22;;;;;;;13.93;2.85;;;;;;;12.90;70.99;101177.72;5031993;28;20489;-76
2023/01/05 14:26:00;;;;;;;12.48;2.47;;;;;;;12.85;71.33;101176.78;5025685;28;20409;-76
2023/01/05 14:28:34;;;;;;;11.90;2.42;;;;;;;12.85;71.33;101182.22;5006469;28;20501;-76
2023/01/05 14:31:15;;;;;;;11.17;2.43;;;;;;;12.86;71.37;101179.25;5020107;28;20896;-76
2023/01/05 14:33:56;;;;;;;12.60;3.15;;;;;;;12.83;71.38;101177.03;5009402;28;20486;-75
2023/01/05 14:36:33;;;;;;;12.60;3.63;;;;;;;12.82;71.11;101183.53;5008550;28;20499;-77
2023/01/05 14:40:42;;;;;;;14.57;3.20;;;;;;;12.36;72.85;101183.66;5076489;27;20389;-77
2023/01/05 14:43:19;;;;;;;13.10;2.75;;;;;;;12.36;73.32;101197.22;5066273;28;20495;-77
2023/01/05 14:46:08;;;;;;;16.08;4.32;;;;;;;12.37;73.25;101191.56;5076857;28;20416;-77